sensor_id;sensor_type;location;lat;lon;timestamp;temperature;humidity
48998;DHT22;34807;51.456;7.244;2023-05-17T00:00:52;12.30;86.80
48998;DHT22;34807;51.456;7.244;2023-05-17T00:03:18;12.30;86.80
48998;DHT22;34807;51.456;7.244;2023-05-17T00:05:43;12.30;86.90
48998;DHT22;34807;51.456;7.244;2023-05-17T00:08:09;12.30;86.90
48998;DHT22;34807;51.456;7.244;2023-05-17T00:10:35;12.30;86.90
48998;DHT22;34807;51.456;7.244;2023-05-17T00:13:01;12.30;87.10
48998;DHT22;34807;51.456;7.244;2023-05-17T00:15:26;12.20;87.00
48998;DHT22;34807;51.456;7.244;2023-05-17T00:17:52;12.20;87.20
48998;DHT22;34807;51.456;7.244;2023-05-17T00:20:17;12.20;87.10
48998;DHT22;34807;51.456;7.244;2023-05-17T00:22:43;12.20;87.30
48998;DHT22;34807;51.456;7.244;2023-05-17T00:25:10;12.20;87.40
48998;DHT22;34807;51.456;7.244;2023-05-17T00:27:35;12.10;87.40
48998;DHT22;34807;51.456;7.244;2023-05-17T00:30:01;12.10;87.20
48998;DHT22;34807;51.456;7.244;2023-05-17T00:32:26;12.10;87.40
48998;DHT22;34807;51.456;7.244;2023-05-17T00:34:52;12.10;87.30
48998;DHT22;34807;51.456;7.244;2023-05-17T00:37:17;12.10;88.20
48998;DHT22;34807;51.456;7.244;2023-05-17T00:39:43;12.10;87.40
48998;DHT22;34807;51.456;7.244;2023-05-17T00:42:09;12.10;87.50
48998;DHT22;34807;51.456;7.244;2023-05-17T00:44:35;12.00;87.60
48998;DHT22;34807;51.456;7.244;2023-05-17T00:47:00;12.00;87.50
48998;DHT22;34807;51.456;7.244;2023-05-17T00:49:27;12.00;87.60
48998;DHT22;34807;51.456;7.244;2023-05-17T00:51:53;12.00;87.60
48998;DHT22;34807;51.456;7.244;2023-05-17T00:54:18;12.00;87.60
48998;DHT22;34807;51.456;7.244;2023-05-17T00:56:44;12.00;87.60
48998;DHT22;34807;51.456;7.244;2023-05-17T00:59:10;12.00;87.80
48998;DHT22;34807;51.456;7.244;2023-05-17T01:01:37;12.00;87.70
48998;DHT22;34807;51.456;7.244;2023-05-17T01:04:05;12.00;87.80
48998;DHT22;34807;51.456;7.244;2023-05-17T01:06:31;11.90;87.80
48998;DHT22;34807;51.456;7.244;2023-05-17T01:08:56;11.90;87.80
48998;DHT22;34807;51.456;7.244;2023-05-17T01:11:31;11.90;87.90
48998;DHT22;34807;51.456;7.244;2023-05-17T01:17:06;11.90;87.90
48998;DHT22;34807;51.456;7.244;2023-05-17T01:24:38;11.80;88.00
48998;DHT22;34807;51.456;7.244;2023-05-17T01:27:08;11.80;88.00
48998;DHT22;34807;51.456;7.244;2023-05-17T01:29:34;11.80;88.10
48998;DHT22;34807;51.456;7.244;2023-05-17T01:32:01;11.80;88.10
48998;DHT22;34807;51.456;7.244;2023-05-17T01:34:28;11.80;88.10
48998;DHT22;34807;51.456;7.244;2023-05-17T01:36:54;11.80;88.10
48998;DHT22;34807;51.456;7.244;2023-05-17T01:39:19;11.80;88.10
48998;DHT22;34807;51.456;7.244;2023-05-17T01:41:56;11.70;88.00
48998;DHT22;34807;51.456;7.244;2023-05-17T01:44:28;11.70;88.20
48998;DHT22;34807;51.456;7.244;2023-05-17T01:47:01;11.70;88.20
48998;DHT22;34807;51.456;7.244;2023-05-17T01:49:31;11.70;88.20
48998;DHT22;34807;51.456;7.244;2023-05-17T01:54:36;11.70;88.20
48998;DHT22;34807;51.456;7.244;2023-05-17T01:57:04;11.70;88.20
48998;DHT22;34807;51.456;7.244;2023-05-17T01:59:30;11.70;88.20
48998;DHT22;34807;51.456;7.244;2023-05-17T02:01:56;11.70;88.30
48998;DHT22;34807;51.456;7.244;2023-05-17T02:04:22;11.60;88.20
48998;DHT22;34807;51.456;7.244;2023-05-17T02:06:48;11.60;88.30
48998;DHT22;34807;51.456;7.244;2023-05-17T02:09:13;11.60;88.30
48998;DHT22;34807;51.456;7.244;2023-05-17T02:11:39;11.60;88.30
48998;DHT22;34807;51.456;7.244;2023-05-17T02:14:05;11.60;88.40
48998;DHT22;34807;51.456;7.244;2023-05-17T02:16:30;11.60;88.40
48998;DHT22;34807;51.456;7.244;2023-05-17T02:18:55;11.60;88.40
48998;DHT22;34807;51.456;7.244;2023-05-17T02:21:21;11.60;88.40
48998;DHT22;34807;51.456;7.244;2023-05-17T02:23:46;11.60;88.40
48998;DHT22;34807;51.456;7.244;2023-05-17T02:26:12;11.50;88.50
48998;DHT22;34807;51.456;7.244;2023-05-17T02:28:37;11.50;88.50
48998;DHT22;34807;51.456;7.244;2023-05-17T02:31:03;11.50;88.50
48998;DHT22;34807;51.456;7.244;2023-05-17T02:33:28;11.50;88.50
48998;DHT22;34807;51.456;7.244;2023-05-17T02:35:54;11.50;88.60
48998;DHT22;34807;51.456;7.244;2023-05-17T02:38:19;11.50;88.60
48998;DHT22;34807;51.456;7.244;2023-05-17T02:40:45;11.50;88.70
48998;DHT22;34807;51.456;7.244;2023-05-17T02:43:11;11.50;88.60
48998;DHT22;34807;51.456;7.244;2023-05-17T02:45:36;11.50;88.70
48998;DHT22;34807;51.456;7.244;2023-05-17T02:48:02;11.40;88.70
48998;DHT22;34807;51.456;7.244;2023-05-17T02:50:27;11.40;88.70
48998;DHT22;34807;51.456;7.244;2023-05-17T02:52:53;11.40;88.70
48998;DHT22;34807;51.456;7.244;2023-05-17T02:55:18;11.40;88.70
48998;DHT22;34807;51.456;7.244;2023-05-17T02:57:44;11.40;88.70
48998;DHT22;34807;51.456;7.244;2023-05-17T03:00:10;11.40;88.70
48998;DHT22;34807;51.456;7.244;2023-05-17T03:02:36;11.40;88.80
48998;DHT22;34807;51.456;7.244;2023-05-17T03:05:01;11.40;88.70
48998;DHT22;34807;51.456;7.244;2023-05-17T03:07:27;11.40;88.70
48998;DHT22;34807;51.456;7.244;2023-05-17T03:09:52;11.40;88.70
48998;DHT22;34807;51.456;7.244;2023-05-17T03:12:18;11.40;88.80
48998;DHT22;34807;51.456;7.244;2023-05-17T03:14:43;11.40;88.90
48998;DHT22;34807;51.456;7.244;2023-05-17T03:17:08;11.40;88.90
48998;DHT22;34807;51.456;7.244;2023-05-17T03:19:34;11.30;88.90
48998;DHT22;34807;51.456;7.244;2023-05-17T03:22:00;11.30;88.90
48998;DHT22;34807;51.456;7.244;2023-05-17T03:24:25;11.30;88.90
48998;DHT22;34807;51.456;7.244;2023-05-17T03:26:51;11.30;88.90
48998;DHT22;34807;51.456;7.244;2023-05-17T03:29:16;11.40;88.90
48998;DHT22;34807;51.456;7.244;2023-05-17T03:31:42;11.30;88.90
48998;DHT22;34807;51.456;7.244;2023-05-17T03:34:07;11.30;89.00
48998;DHT22;34807;51.456;7.244;2023-05-17T03:36:33;11.30;88.90
48998;DHT22;34807;51.456;7.244;2023-05-17T03:38:58;11.30;88.90
48998;DHT22;34807;51.456;7.244;2023-05-17T03:41:24;11.30;89.00
48998;DHT22;34807;51.456;7.244;2023-05-17T03:43:49;11.20;89.10
48998;DHT22;34807;51.456;7.244;2023-05-17T03:46:15;11.20;89.10
48998;DHT22;34807;51.456;7.244;2023-05-17T03:48:40;11.20;89.20
48998;DHT22;34807;51.456;7.244;2023-05-17T03:51:06;11.20;89.20
48998;DHT22;34807;51.456;7.244;2023-05-17T03:53:31;11.20;89.30
48998;DHT22;34807;51.456;7.244;2023-05-17T03:55:57;11.20;89.40
48998;DHT22;34807;51.456;7.244;2023-05-17T03:58:22;11.20;89.40
48998;DHT22;34807;51.456;7.244;2023-05-17T04:00:48;11.20;89.40
48998;DHT22;34807;51.456;7.244;2023-05-17T04:03:13;11.20;89.40
48998;DHT22;34807;51.456;7.244;2023-05-17T04:05:39;11.20;89.00
48998;DHT22;34807;51.456;7.244;2023-05-17T04:08:05;11.20;89.50
48998;DHT22;34807;51.456;7.244;2023-05-17T04:10:31;11.20;89.50
48998;DHT22;34807;51.456;7.244;2023-05-17T04:12:56;11.20;89.50
48998;DHT22;34807;51.456;7.244;2023-05-17T04:15:22;11.30;89.70
48998;DHT22;34807;51.456;7.244;2023-05-17T04:17:47;11.30;89.60
48998;DHT22;34807;51.456;7.244;2023-05-17T04:20:13;11.30;89.70
48998;DHT22;34807;51.456;7.244;2023-05-17T04:22:38;11.30;90.10
48998;DHT22;34807;51.456;7.244;2023-05-17T04:25:04;11.30;89.70
48998;DHT22;34807;51.456;7.244;2023-05-17T04:27:30;11.30;89.90
48998;DHT22;34807;51.456;7.244;2023-05-17T04:29:56;11.30;89.70
48998;DHT22;34807;51.456;7.244;2023-05-17T04:32:21;11.30;89.80
48998;DHT22;34807;51.456;7.244;2023-05-17T04:34:48;11.30;89.90
48998;DHT22;34807;51.456;7.244;2023-05-17T04:37:13;11.30;89.80
48998;DHT22;34807;51.456;7.244;2023-05-17T04:39:40;11.30;89.90
48998;DHT22;34807;51.456;7.244;2023-05-17T04:42:05;11.30;89.90
48998;DHT22;34807;51.456;7.244;2023-05-17T04:44:31;11.30;90.00
48998;DHT22;34807;51.456;7.244;2023-05-17T04:46:57;11.30;90.00
48998;DHT22;34807;51.456;7.244;2023-05-17T04:49:23;11.30;89.90
48998;DHT22;34807;51.456;7.244;2023-05-17T04:51:49;11.30;89.80
48998;DHT22;34807;51.456;7.244;2023-05-17T04:54:14;11.30;90.00
48998;DHT22;34807;51.456;7.244;2023-05-17T04:56:40;11.30;90.00
48998;DHT22;34807;51.456;7.244;2023-05-17T04:59:06;11.30;90.00
48998;DHT22;34807;51.456;7.244;2023-05-17T05:01:31;11.30;90.00
48998;DHT22;34807;51.456;7.244;2023-05-17T05:03:59;11.30;90.10
48998;DHT22;34807;51.456;7.244;2023-05-17T05:06:25;11.30;90.10
48998;DHT22;34807;51.456;7.244;2023-05-17T05:08:50;11.30;90.10
48998;DHT22;34807;51.456;7.244;2023-05-17T05:11:16;11.30;90.10
48998;DHT22;34807;51.456;7.244;2023-05-17T05:13:42;11.30;90.20
48998;DHT22;34807;51.456;7.244;2023-05-17T05:16:07;11.30;90.10
48998;DHT22;34807;51.456;7.244;2023-05-17T05:18:33;11.30;90.10
48998;DHT22;34807;51.456;7.244;2023-05-17T05:20:58;11.30;90.20
48998;DHT22;34807;51.456;7.244;2023-05-17T05:23:24;11.40;90.10
48998;DHT22;34807;51.456;7.244;2023-05-17T05:25:50;11.40;90.10
48998;DHT22;34807;51.456;7.244;2023-05-17T05:28:15;11.40;90.00
48998;DHT22;34807;51.456;7.244;2023-05-17T05:30:41;11.40;90.00
48998;DHT22;34807;51.456;7.244;2023-05-17T05:33:06;11.40;90.10
48998;DHT22;34807;51.456;7.244;2023-05-17T05:35:32;11.40;90.10
48998;DHT22;34807;51.456;7.244;2023-05-17T05:37:57;11.40;90.00
48998;DHT22;34807;51.456;7.244;2023-05-17T05:40:23;11.40;90.10
48998;DHT22;34807;51.456;7.244;2023-05-17T05:42:48;11.40;90.10
48998;DHT22;34807;51.456;7.244;2023-05-17T05:45:14;11.40;90.10
48998;DHT22;34807;51.456;7.244;2023-05-17T05:47:40;11.40;90.00
48998;DHT22;34807;51.456;7.244;2023-05-17T05:50:05;11.40;90.10
48998;DHT22;34807;51.456;7.244;2023-05-17T05:52:31;11.40;90.10
48998;DHT22;34807;51.456;7.244;2023-05-17T05:54:56;11.40;90.10
48998;DHT22;34807;51.456;7.244;2023-05-17T05:57:22;11.40;90.10
48998;DHT22;34807;51.456;7.244;2023-05-17T05:59:48;11.40;90.10
48998;DHT22;34807;51.456;7.244;2023-05-17T06:02:13;11.40;90.00
48998;DHT22;34807;51.456;7.244;2023-05-17T06:04:39;11.40;90.10
48998;DHT22;34807;51.456;7.244;2023-05-17T06:07:04;11.40;90.00
48998;DHT22;34807;51.456;7.244;2023-05-17T06:09:30;11.40;90.10
48998;DHT22;34807;51.456;7.244;2023-05-17T06:11:55;11.40;90.00
48998;DHT22;34807;51.456;7.244;2023-05-17T06:14:21;11.40;89.80
48998;DHT22;34807;51.456;7.244;2023-05-17T06:16:46;11.40;89.90
48998;DHT22;34807;51.456;7.244;2023-05-17T06:19:13;11.40;89.90
48998;DHT22;34807;51.456;7.244;2023-05-17T06:21:38;11.40;89.90
48998;DHT22;34807;51.456;7.244;2023-05-17T06:24:04;11.50;89.90
48998;DHT22;34807;51.456;7.244;2023-05-17T06:26:29;11.50;89.70
48998;DHT22;34807;51.456;7.244;2023-05-17T06:28:55;11.40;89.60
48998;DHT22;34807;51.456;7.244;2023-05-17T06:31:21;11.50;89.80
48998;DHT22;34807;51.456;7.244;2023-05-17T06:33:46;11.50;89.70
48998;DHT22;34807;51.456;7.244;2023-05-17T06:36:12;11.50;89.80
48998;DHT22;34807;51.456;7.244;2023-05-17T06:38:37;11.50;89.60
48998;DHT22;34807;51.456;7.244;2023-05-17T06:41:03;11.60;89.60
48998;DHT22;34807;51.456;7.244;2023-05-17T06:43:28;11.60;89.50
48998;DHT22;34807;51.456;7.244;2023-05-17T06:45:54;11.60;89.50
48998;DHT22;34807;51.456;7.244;2023-05-17T06:48:19;11.60;89.30
48998;DHT22;34807;51.456;7.244;2023-05-17T06:50:45;11.60;89.30
48998;DHT22;34807;51.456;7.244;2023-05-17T06:53:10;11.70;89.30
48998;DHT22;34807;51.456;7.244;2023-05-17T06:55:36;11.70;89.20
48998;DHT22;34807;51.456;7.244;2023-05-17T06:58:01;11.80;89.10
48998;DHT22;34807;51.456;7.244;2023-05-17T07:00:27;11.80;88.90
48998;DHT22;34807;51.456;7.244;2023-05-17T07:02:53;11.90;88.80
48998;DHT22;34807;51.456;7.244;2023-05-17T07:05:19;11.90;88.60
48998;DHT22;34807;51.456;7.244;2023-05-17T07:07:45;11.90;88.60
48998;DHT22;34807;51.456;7.244;2023-05-17T07:10:10;12.00;88.50
48998;DHT22;34807;51.456;7.244;2023-05-17T07:12:36;12.00;88.40
48998;DHT22;34807;51.456;7.244;2023-05-17T07:15:02;12.00;88.40
48998;DHT22;34807;51.456;7.244;2023-05-17T07:17:27;12.10;89.00
48998;DHT22;34807;51.456;7.244;2023-05-17T07:19:53;12.20;88.10
48998;DHT22;34807;51.456;7.244;2023-05-17T07:22:19;12.20;88.10
48998;DHT22;34807;51.456;7.244;2023-05-17T07:24:45;12.20;88.00
48998;DHT22;34807;51.456;7.244;2023-05-17T07:27:10;12.20;88.00
48998;DHT22;34807;51.456;7.244;2023-05-17T07:29:36;12.20;87.90
48998;DHT22;34807;51.456;7.244;2023-05-17T07:32:02;12.30;87.80
48998;DHT22;34807;51.456;7.244;2023-05-17T07:34:29;12.30;87.70
48998;DHT22;34807;51.456;7.244;2023-05-17T07:36:54;12.30;87.60
48998;DHT22;34807;51.456;7.244;2023-05-17T07:39:20;12.40;87.50
48998;DHT22;34807;51.456;7.244;2023-05-17T07:41:45;12.40;87.40
48998;DHT22;34807;51.456;7.244;2023-05-17T07:44:11;12.40;87.30
48998;DHT22;34807;51.456;7.244;2023-05-17T07:46:36;12.40;87.40
48998;DHT22;34807;51.456;7.244;2023-05-17T07:49:02;12.40;87.10
48998;DHT22;34807;51.456;7.244;2023-05-17T07:51:27;12.40;87.20
48998;DHT22;34807;51.456;7.244;2023-05-17T07:53:53;12.40;87.10
48998;DHT22;34807;51.456;7.244;2023-05-17T07:56:18;12.40;87.10
48998;DHT22;34807;51.456;7.244;2023-05-17T07:58:44;12.40;87.10
48998;DHT22;34807;51.456;7.244;2023-05-17T08:01:09;12.40;87.20
48998;DHT22;34807;51.456;7.244;2023-05-17T08:03:35;12.40;87.10
48998;DHT22;34807;51.456;7.244;2023-05-17T08:06:00;12.40;87.00
48998;DHT22;34807;51.456;7.244;2023-05-17T08:08:26;12.50;87.00
48998;DHT22;34807;51.456;7.244;2023-05-17T08:10:51;12.50;86.80
48998;DHT22;34807;51.456;7.244;2023-05-17T08:13:17;12.50;86.60
48998;DHT22;34807;51.456;7.244;2023-05-17T08:15:43;12.60;86.60
48998;DHT22;34807;51.456;7.244;2023-05-17T08:18:08;12.60;86.40
48998;DHT22;34807;51.456;7.244;2023-05-17T08:20:34;12.60;86.20
48998;DHT22;34807;51.456;7.244;2023-05-17T08:22:59;12.70;86.20
48998;DHT22;34807;51.456;7.244;2023-05-17T08:25:25;12.70;86.00
48998;DHT22;34807;51.456;7.244;2023-05-17T08:27:50;12.70;85.60
48998;DHT22;34807;51.456;7.244;2023-05-17T08:30:16;12.80;85.60
48998;DHT22;34807;51.456;7.244;2023-05-17T08:32:42;12.80;85.40
48998;DHT22;34807;51.456;7.244;2023-05-17T08:35:09;12.80;85.20
48998;DHT22;34807;51.456;7.244;2023-05-17T08:37:34;12.90;85.00
48998;DHT22;34807;51.456;7.244;2023-05-17T08:40:00;12.90;84.90
48998;DHT22;34807;51.456;7.244;2023-05-17T08:42:25;13.00;84.70
48998;DHT22;34807;51.456;7.244;2023-05-17T08:44:52;13.00;84.50
48998;DHT22;34807;51.456;7.244;2023-05-17T08:47:18;13.00;84.40
48998;DHT22;34807;51.456;7.244;2023-05-17T08:49:54;13.10;85.00
48998;DHT22;34807;51.456;7.244;2023-05-17T08:52:20;13.10;84.30
48998;DHT22;34807;51.456;7.244;2023-05-17T08:54:46;13.10;84.30
48998;DHT22;34807;51.456;7.244;2023-05-17T08:57:13;13.20;84.20
48998;DHT22;34807;51.456;7.244;2023-05-17T08:59:40;13.20;83.80
48998;DHT22;34807;51.456;7.244;2023-05-17T09:02:07;13.30;83.70
48998;DHT22;34807;51.456;7.244;2023-05-17T09:04:32;13.40;83.30
48998;DHT22;34807;51.456;7.244;2023-05-17T09:06:58;13.40;83.00
48998;DHT22;34807;51.456;7.244;2023-05-17T09:09:24;13.40;83.00
48998;DHT22;34807;51.456;7.244;2023-05-17T09:11:50;13.40;83.00
48998;DHT22;34807;51.456;7.244;2023-05-17T09:14:15;13.50;83.10
48998;DHT22;34807;51.456;7.244;2023-05-17T09:16:44;13.40;83.30
48998;DHT22;34807;51.456;7.244;2023-05-17T09:19:13;13.40;83.30
48998;DHT22;34807;51.456;7.244;2023-05-17T09:21:39;13.30;83.20
48998;DHT22;34807;51.456;7.244;2023-05-17T09:24:05;13.30;83.40
48998;DHT22;34807;51.456;7.244;2023-05-17T09:26:37;13.40;83.40
48998;DHT22;34807;51.456;7.244;2023-05-17T09:29:06;13.50;83.30
48998;DHT22;34807;51.456;7.244;2023-05-17T09:31:32;13.60;83.10
48998;DHT22;34807;51.456;7.244;2023-05-17T09:33:58;13.60;82.90
48998;DHT22;34807;51.456;7.244;2023-05-17T09:36:24;13.70;82.90
48998;DHT22;34807;51.456;7.244;2023-05-17T09:38:56;13.80;82.60
48998;DHT22;34807;51.456;7.244;2023-05-17T09:41:26;13.80;82.40
48998;DHT22;34807;51.456;7.244;2023-05-17T09:43:51;13.90;82.10
48998;DHT22;34807;51.456;7.244;2023-05-17T09:46:20;14.00;81.80
48998;DHT22;34807;51.456;7.244;2023-05-17T09:48:45;14.00;81.40
48998;DHT22;34807;51.456;7.244;2023-05-17T09:51:16;14.00;81.30
48998;DHT22;34807;51.456;7.244;2023-05-17T09:53:42;14.10;81.20
48998;DHT22;34807;51.456;7.244;2023-05-17T09:56:08;14.20;81.20
48998;DHT22;34807;51.456;7.244;2023-05-17T09:58:37;14.20;81.10
48998;DHT22;34807;51.456;7.244;2023-05-17T10:01:03;14.10;81.30
48998;DHT22;34807;51.456;7.244;2023-05-17T10:03:30;14.10;81.50
48998;DHT22;34807;51.456;7.244;2023-05-17T10:05:57;14.20;81.40
48998;DHT22;34807;51.456;7.244;2023-05-17T10:08:23;14.30;81.30
48998;DHT22;34807;51.456;7.244;2023-05-17T10:10:55;14.40;81.20
48998;DHT22;34807;51.456;7.244;2023-05-17T10:13:23;14.30;81.20
48998;DHT22;34807;51.456;7.244;2023-05-17T10:15:50;14.30;81.00
48998;DHT22;34807;51.456;7.244;2023-05-17T10:18:17;14.40;81.20
48998;DHT22;34807;51.456;7.244;2023-05-17T10:20:43;14.30;81.40
48998;DHT22;34807;51.456;7.244;2023-05-17T10:23:10;14.30;81.50
48998;DHT22;34807;51.456;7.244;2023-05-17T10:25:36;14.40;81.20
48998;DHT22;34807;51.456;7.244;2023-05-17T10:28:02;14.50;81.10
48998;DHT22;34807;51.456;7.244;2023-05-17T10:30:30;14.60;81.10
48998;DHT22;34807;51.456;7.244;2023-05-17T10:32:56;14.70;80.60
48998;DHT22;34807;51.456;7.244;2023-05-17T10:35:22;14.80;80.60
48998;DHT22;34807;51.456;7.244;2023-05-17T10:37:48;14.80;80.20
48998;DHT22;34807;51.456;7.244;2023-05-17T10:40:14;14.90;80.40
48998;DHT22;34807;51.456;7.244;2023-05-17T10:42:42;15.00;80.20
48998;DHT22;34807;51.456;7.244;2023-05-17T10:45:10;15.10;80.20
48998;DHT22;34807;51.456;7.244;2023-05-17T10:47:38;15.10;79.60
48998;DHT22;34807;51.456;7.244;2023-05-17T10:50:08;15.30;79.80
48998;DHT22;34807;51.456;7.244;2023-05-17T10:52:37;15.40;79.60
48998;DHT22;34807;51.456;7.244;2023-05-17T10:55:02;15.40;79.90
48998;DHT22;34807;51.456;7.244;2023-05-17T10:57:35;15.30;78.80
48998;DHT22;34807;51.456;7.244;2023-05-17T11:00:02;15.40;79.80
48998;DHT22;34807;51.456;7.244;2023-05-17T11:02:30;15.50;80.00
48998;DHT22;34807;51.456;7.244;2023-05-17T11:04:56;15.60;79.60
48998;DHT22;34807;51.456;7.244;2023-05-17T11:07:24;15.70;79.80
48998;DHT22;34807;51.456;7.244;2023-05-17T11:15:05;15.60;80.10
48998;DHT22;34807;51.456;7.244;2023-05-17T11:20:00;15.80;80.30
48998;DHT22;34807;51.456;7.244;2023-05-17T11:22:27;15.90;80.30
48998;DHT22;34807;51.456;7.244;2023-05-17T11:24:53;16.00;79.70
48998;DHT22;34807;51.456;7.244;2023-05-17T11:27:20;16.00;79.40
48998;DHT22;34807;51.456;7.244;2023-05-17T11:29:54;16.00;79.60
48998;DHT22;34807;51.456;7.244;2023-05-17T11:32:27;16.10;79.20
48998;DHT22;34807;51.456;7.244;2023-05-17T11:34:53;16.20;79.00
48998;DHT22;34807;51.456;7.244;2023-05-17T11:37:25;16.30;79.20
48998;DHT22;34807;51.456;7.244;2023-05-17T11:40:01;16.40;78.60
48998;DHT22;34807;51.456;7.244;2023-05-17T11:42:28;16.50;78.30
48998;DHT22;34807;51.456;7.244;2023-05-17T11:44:55;16.40;78.20
48998;DHT22;34807;51.456;7.244;2023-05-17T11:47:21;16.50;78.60
48998;DHT22;34807;51.456;7.244;2023-05-17T11:49:47;16.60;79.00
48998;DHT22;34807;51.456;7.244;2023-05-17T11:52:15;16.70;79.10
48998;DHT22;34807;51.456;7.244;2023-05-17T11:54:41;16.80;78.60
48998;DHT22;34807;51.456;7.244;2023-05-17T11:57:07;16.90;78.60
48998;DHT22;34807;51.456;7.244;2023-05-17T11:59:36;16.90;78.70
48998;DHT22;34807;51.456;7.244;2023-05-17T12:02:05;16.90;78.10
48998;DHT22;34807;51.456;7.244;2023-05-17T12:04:33;16.90;78.50
48998;DHT22;34807;51.456;7.244;2023-05-17T12:06:59;16.90;77.90
48998;DHT22;34807;51.456;7.244;2023-05-17T12:09:25;17.00;78.60
48998;DHT22;34807;51.456;7.244;2023-05-17T12:11:51;17.00;78.80
48998;DHT22;34807;51.456;7.244;2023-05-17T12:14:17;17.10;78.40
48998;DHT22;34807;51.456;7.244;2023-05-17T12:16:45;17.30;78.40
48998;DHT22;34807;51.456;7.244;2023-05-17T12:19:16;17.30;78.60
48998;DHT22;34807;51.456;7.244;2023-05-17T12:21:43;17.30;78.10
48998;DHT22;34807;51.456;7.244;2023-05-17T12:24:08;17.20;78.20
48998;DHT22;34807;51.456;7.244;2023-05-17T12:26:34;17.20;78.00
48998;DHT22;34807;51.456;7.244;2023-05-17T12:29:06;17.30;78.30
48998;DHT22;34807;51.456;7.244;2023-05-17T12:34:03;17.50;78.50
48998;DHT22;34807;51.456;7.244;2023-05-17T12:36:29;17.60;78.30
48998;DHT22;34807;51.456;7.244;2023-05-17T12:38:57;17.70;78.20
48998;DHT22;34807;51.456;7.244;2023-05-17T12:41:24;17.70;78.60
48998;DHT22;34807;51.456;7.244;2023-05-17T12:43:50;17.70;77.90
48998;DHT22;34807;51.456;7.244;2023-05-17T12:46:17;17.60;77.60
48998;DHT22;34807;51.456;7.244;2023-05-17T12:48:46;17.70;76.90
48998;DHT22;34807;51.456;7.244;2023-05-17T12:53:37;17.90;77.70
48998;DHT22;34807;51.456;7.244;2023-05-17T12:56:03;17.90;77.80
48998;DHT22;34807;51.456;7.244;2023-05-17T12:58:29;18.10;77.40
48998;DHT22;34807;51.456;7.244;2023-05-17T13:00:59;18.20;76.80
48998;DHT22;34807;51.456;7.244;2023-05-17T13:03:24;18.30;76.60
48998;DHT22;34807;51.456;7.244;2023-05-17T13:06:00;18.30;75.50
48998;DHT22;34807;51.456;7.244;2023-05-17T13:08:26;18.30;76.50
48998;DHT22;34807;51.456;7.244;2023-05-17T13:10:51;18.30;75.90
48998;DHT22;34807;51.456;7.244;2023-05-17T13:13:17;18.30;75.50
48998;DHT22;34807;51.456;7.244;2023-05-17T13:15:44;18.50;75.90
48998;DHT22;34807;51.456;7.244;2023-05-17T13:18:11;18.50;75.40
48998;DHT22;34807;51.456;7.244;2023-05-17T13:20:37;18.60;75.50
48998;DHT22;34807;51.456;7.244;2023-05-17T13:23:04;18.60;75.50
48998;DHT22;34807;51.456;7.244;2023-05-17T13:25:30;18.70;75.00
48998;DHT22;34807;51.456;7.244;2023-05-17T13:27:55;18.80;75.10
48998;DHT22;34807;51.456;7.244;2023-05-17T13:30:21;18.80;74.00
48998;DHT22;34807;51.456;7.244;2023-05-17T13:32:46;18.80;73.80
48998;DHT22;34807;51.456;7.244;2023-05-17T13:35:12;18.80;74.20
48998;DHT22;34807;51.456;7.244;2023-05-17T13:37:38;18.80;73.90
48998;DHT22;34807;51.456;7.244;2023-05-17T13:40:04;18.80;74.60
48998;DHT22;34807;51.456;7.244;2023-05-17T13:42:29;18.80;74.10
48998;DHT22;34807;51.456;7.244;2023-05-17T13:44:56;18.80;74.50
48998;DHT22;34807;51.456;7.244;2023-05-17T13:47:21;18.70;75.10
48998;DHT22;34807;51.456;7.244;2023-05-17T13:49:47;18.70;74.90
48998;DHT22;34807;51.456;7.244;2023-05-17T13:52:12;18.80;75.40
48998;DHT22;34807;51.456;7.244;2023-05-17T13:54:38;18.80;75.60
48998;DHT22;34807;51.456;7.244;2023-05-17T13:57:05;18.90;75.40
48998;DHT22;34807;51.456;7.244;2023-05-17T13:59:31;19.00;75.60
48998;DHT22;34807;51.456;7.244;2023-05-17T14:01:56;19.10;75.30
48998;DHT22;34807;51.456;7.244;2023-05-17T14:04:22;19.10;74.40
48998;DHT22;34807;51.456;7.244;2023-05-17T14:06:48;19.00;75.00
48998;DHT22;34807;51.456;7.244;2023-05-17T14:09:13;19.00;74.30
48998;DHT22;34807;51.456;7.244;2023-05-17T14:11:39;18.90;74.30
48998;DHT22;34807;51.456;7.244;2023-05-17T14:14:04;18.80;74.20
48998;DHT22;34807;51.456;7.244;2023-05-17T14:16:30;18.90;74.30
48998;DHT22;34807;51.456;7.244;2023-05-17T14:18:56;18.90;75.10
48998;DHT22;34807;51.456;7.244;2023-05-17T14:21:21;18.90;74.80
48998;DHT22;34807;51.456;7.244;2023-05-17T14:23:47;19.00;74.80
48998;DHT22;34807;51.456;7.244;2023-05-17T14:26:12;19.10;74.00
48998;DHT22;34807;51.456;7.244;2023-05-17T14:28:38;19.20;71.70
48998;DHT22;34807;51.456;7.244;2023-05-17T14:31:04;19.20;71.90
48998;DHT22;34807;51.456;7.244;2023-05-17T14:33:30;19.20;72.60
48998;DHT22;34807;51.456;7.244;2023-05-17T14:35:56;19.10;72.80
48998;DHT22;34807;51.456;7.244;2023-05-17T14:38:21;19.00;73.30
48998;DHT22;34807;51.456;7.244;2023-05-17T14:40:47;19.10;73.00
48998;DHT22;34807;51.456;7.244;2023-05-17T14:43:12;19.00;73.30
48998;DHT22;34807;51.456;7.244;2023-05-17T14:45:38;19.00;72.90
48998;DHT22;34807;51.456;7.244;2023-05-17T14:48:03;19.00;73.10
48998;DHT22;34807;51.456;7.244;2023-05-17T14:50:29;19.10;72.20
48998;DHT22;34807;51.456;7.244;2023-05-17T14:52:57;19.30;71.70
48998;DHT22;34807;51.456;7.244;2023-05-17T14:55:22;19.60;71.20
48998;DHT22;34807;51.456;7.244;2023-05-17T14:57:51;19.90;69.70
48998;DHT22;34807;51.456;7.244;2023-05-17T15:00:18;20.10;69.60
48998;DHT22;34807;51.456;7.244;2023-05-17T15:02:44;20.40;69.10
48998;DHT22;34807;51.456;7.244;2023-05-17T15:05:09;20.60;68.30
48998;DHT22;34807;51.456;7.244;2023-05-17T15:07:35;20.90;68.20
48998;DHT22;34807;51.456;7.244;2023-05-17T15:10:02;21.10;68.00
48998;DHT22;34807;51.456;7.244;2023-05-17T15:12:28;21.30;67.30
48998;DHT22;34807;51.456;7.244;2023-05-17T15:14:53;21.60;67.00
48998;DHT22;34807;51.456;7.244;2023-05-17T15:17:19;21.70;66.70
48998;DHT22;34807;51.456;7.244;2023-05-17T15:19:46;21.90;66.60
48998;DHT22;34807;51.456;7.244;2023-05-17T15:22:11;22.10;66.10
48998;DHT22;34807;51.456;7.244;2023-05-17T15:24:37;22.30;65.70
48998;DHT22;34807;51.456;7.244;2023-05-17T15:27:04;22.50;65.50
48998;DHT22;34807;51.456;7.244;2023-05-17T15:29:30;22.40;65.30
48998;DHT22;34807;51.456;7.244;2023-05-17T15:31:56;22.20;65.50
48998;DHT22;34807;51.456;7.244;2023-05-17T15:34:23;22.00;65.90
48998;DHT22;34807;51.456;7.244;2023-05-17T15:36:51;21.90;66.50
48998;DHT22;34807;51.456;7.244;2023-05-17T15:39:16;22.10;66.10
48998;DHT22;34807;51.456;7.244;2023-05-17T15:41:42;22.60;65.60
48998;DHT22;34807;51.456;7.244;2023-05-17T15:44:09;22.90;64.60
48998;DHT22;34807;51.456;7.244;2023-05-17T15:46:35;22.90;65.30